createdAt,value
2023-06-29T00:03:07.736Z,100069.02
2023-06-29T00:08:10.916Z,100069.15
2023-06-29T00:13:12.732Z,100070.73
2023-06-29T00:18:19.680Z,100072.46
2023-06-29T00:23:21.409Z,100075.52
2023-06-29T00:28:23.245Z,100075.41
2023-06-29T00:33:25.212Z,100080.54
2023-06-29T00:38:27.392Z,100075.82
2023-06-29T00:43:29.480Z,100073.80
2023-06-29T00:48:31.456Z,100070.55
2023-06-29T00:53:33.640Z,100066.46
2023-06-29T00:58:36.335Z,100063.55
2023-06-29T01:03:39.318Z,100060.34
2023-06-29T01:08:46.781Z,100058.58
2023-06-29T01:13:51.735Z,100056.84
2023-06-29T01:18:55.951Z,100054.18
2023-06-29T01:23:59.757Z,100052.42
2023-06-29T01:29:01.631Z,100044.24
2023-06-29T01:34:03.361Z,100044.89
2023-06-29T01:39:16.746Z,100046.23
2023-06-29T01:44:19.650Z,100038.83
2023-06-29T01:49:21.729Z,100045.64
2023-06-29T01:54:23.609Z,100046.88
2023-06-29T01:59:26.097Z,100042.29
2023-06-29T02:04:28.189Z,100047.52
2023-06-29T02:09:30.362Z,100052.40
2023-06-29T02:14:32.139Z,100054.50
2023-06-29T02:19:33.954Z,100058.37
2023-06-29T02:24:35.918Z,100062.63
2023-06-29T02:29:38.204Z,100065.92
2023-06-29T02:34:40.200Z,100073.13
2023-06-29T02:39:42.145Z,100077.45
2023-06-29T02:44:44.220Z,100074.79
2023-06-29T02:49:46.096Z,100078.78
2023-06-29T02:54:48.083Z,100082.70
2023-06-29T02:59:49.852Z,100087.33
2023-06-29T03:04:52.135Z,100087.31
2023-06-29T03:09:53.929Z,100085.99
2023-06-29T03:14:55.682Z,100089.04
2023-06-29T03:19:57.673Z,100094.29
2023-06-29T03:24:59.542Z,100095.20
2023-06-29T03:30:01.453Z,100093.50
2023-06-29T03:35:04.734Z,100095.48
2023-06-29T03:40:08.045Z,100094.31
2023-06-29T03:45:10.549Z,100096.23
2023-06-29T03:50:12.556Z,100095.70
2023-06-29T03:55:14.703Z,100094.96
2023-06-29T04:00:17.293Z,100100.42
2023-06-29T04:05:19.168Z,100097.75
2023-06-29T04:10:21.366Z,100095.59
2023-06-29T04:15:23.336Z,100105.08
2023-06-29T04:20:25.421Z,100104.30
2023-06-29T04:25:27.500Z,100103.99
2023-06-29T04:30:29.382Z,100101.54
2023-06-29T04:35:31.557Z,100098.34
2023-06-29T04:40:33.436Z,100103.98
2023-06-29T04:45:35.822Z,100107.99
2023-06-29T04:50:38.422Z,100112.89
2023-06-29T04:55:40.397Z,100114.56
2023-06-29T05:00:42.271Z,100110.91
2023-06-29T05:05:45.499Z,100106.64
2023-06-29T05:10:47.668Z,100105.64
2023-06-29T05:15:49.544Z,100112.00
2023-06-29T05:20:51.274Z,100113.16
2023-06-29T05:25:53.206Z,100101.84
2023-06-29T05:30:55.073Z,100099.24
2023-06-29T05:35:56.969Z,100100.36
2023-06-29T05:41:01.444Z,100099.30
2023-06-29T05:46:04.954Z,100103.12
2023-06-29T05:51:07.595Z,100102.30
2023-06-29T05:56:09.881Z,100099.05
2023-06-29T06:01:12.578Z,100098.86
2023-06-29T06:06:14.869Z,100101.29
2023-06-29T06:11:16.746Z,100098.27
2023-06-29T06:16:19.693Z,100099.58
2023-06-29T06:21:21.731Z,100113.55
2023-06-29T06:26:23.627Z,100117.34
2023-06-29T06:31:33.635Z,100120.72
2023-06-29T06:36:37.188Z,100117.44
2023-06-29T06:41:39.224Z,100114.43
2023-06-29T06:46:41.322Z,100107.71
2023-06-29T06:51:43.740Z,100107.60
2023-06-29T06:56:45.714Z,100109.11
2023-06-29T07:01:48.316Z,100105.71
2023-06-29T07:06:50.227Z,100099.09
2023-06-29T07:11:52.274Z,100099.17
2023-06-29T07:16:55.729Z,100097.62
2023-06-29T07:27:02.692Z,100088.75
2023-06-29T07:32:05.635Z,100087.39
2023-06-29T07:37:08.207Z,100093.39
2023-06-29T07:42:10.107Z,100091.20
2023-06-29T07:47:12.102Z,100082.15
2023-06-29T07:52:14.251Z,100081.98
2023-06-29T08:02:21.693Z,100079.85
2023-06-29T08:07:24.074Z,100077.29
2023-06-29T08:12:26.066Z,100071.80
2023-06-29T08:17:30.826Z,100069.81
2023-06-29T08:22:32.788Z,100067.05
2023-06-29T08:27:36.408Z,100063.41
2023-06-29T08:32:38.420Z,100065.36
2023-06-29T08:37:40.688Z,100065.60
2023-06-29T08:42:43.165Z,100063.89
2023-06-29T08:47:51.895Z,100057.80
2023-06-29T08:52:55.468Z,100053.98
2023-06-29T08:57:57.833Z,100055.23
2023-06-29T09:03:00.638Z,100053.55
2023-06-29T09:08:03.501Z,100050.92
2023-06-29T09:13:06.939Z,100049.52
2023-06-29T09:18:09.147Z,100048.89
2023-06-29T09:23:13.654Z,100041.73
2023-06-29T09:28:15.831Z,100037.80
2023-06-29T09:33:19.298Z,100036.02
2023-06-29T09:38:21.119Z,100038.02
2023-06-29T09:43:28.480Z,100031.85
2023-06-29T09:53:37.810Z,100020.74
2023-06-29T09:58:40.509Z,100013.75
2023-06-29T10:03:42.706Z,100010.11
2023-06-29T10:08:50.914Z,100007.66
2023-06-29T10:13:55.254Z,100003.27
2023-06-29T10:19:04.355Z,99998.16
2023-06-29T10:24:07.378Z,99995.86
2023-06-29T10:29:10.225Z,99994.72
2023-06-29T10:34:14.031Z,99987.52
2023-06-29T10:39:41.307Z,99984.67
2023-06-29T10:44:47.524Z,99985.15
2023-06-29T10:49:57.141Z,99982.84
2023-06-29T10:55:13.555Z,99978.73
2023-06-29T11:00:16.755Z,99975.89
2023-06-29T11:05:20.624Z,99965.73
2023-06-29T11:10:23.284Z,99961.14
2023-06-29T11:15:28.131Z,99960.98
2023-06-29T11:20:30.721Z,99964.06
2023-06-29T11:25:33.249Z,99961.66
2023-06-29T11:30:40.336Z,99958.08
2023-06-29T11:35:44.089Z,99947.63
2023-06-29T11:40:46.015Z,99942.11
2023-06-29T11:45:49.629Z,99939.44
2023-06-29T11:50:51.824Z,99937.26
2023-06-29T11:55:55.342Z,99928.04
2023-06-29T12:00:57.598Z,99932.54
2023-06-29T12:06:01.347Z,99928.24
2023-06-29T12:11:04.306Z,99926.33
2023-06-29T12:21:18.126Z,99921.09
2023-06-29T12:26:21.951Z,99917.95
2023-06-29T12:31:30.331Z,99917.04
2023-06-29T12:36:33.896Z,99916.83
2023-06-29T12:41:36.116Z,99914.50
2023-06-29T12:46:38.116Z,99904.00
2023-06-29T12:51:40.251Z,99902.35
2023-06-29T12:56:42.945Z,99903.38
2023-06-29T13:01:45.245Z,99897.29
2023-06-29T13:06:47.230Z,99899.52
2023-06-29T13:11:49.195Z,99901.75
2023-06-29T13:16:51.404Z,99901.35
2023-06-29T13:21:56.774Z,99901.48
2023-06-29T13:26:59.122Z,99893.58
2023-06-29T13:32:01.102Z,99887.19
2023-06-29T13:37:03.697Z,99893.37
2023-06-29T13:42:10.586Z,99892.67
2023-06-29T13:47:18.584Z,99899.64
2023-06-29T13:52:20.486Z,99899.41
2023-06-29T13:57:23.648Z,99893.71
2023-06-29T14:02:28.652Z,99891.73
2023-06-29T14:07:30.807Z,99886.88
2023-06-29T14:12:33.939Z,99884.54
2023-06-29T14:17:36.808Z,99884.67
2023-06-29T14:22:39.671Z,99893.41
2023-06-29T14:27:42.180Z,99890.47
2023-06-29T14:32:44.648Z,99887.28
2023-06-29T14:37:46.904Z,99884.48
2023-06-29T14:42:48.893Z,99884.37
2023-06-29T14:47:50.907Z,99882.17
2023-06-29T14:52:52.951Z,99885.90
2023-06-29T14:57:54.823Z,99881.80
2023-06-29T15:02:56.634Z,99878.73
2023-06-29T15:07:58.621Z,99875.11
2023-06-29T15:13:00.667Z,99877.20
2023-06-29T15:18:02.705Z,99875.67
2023-06-29T15:23:04.624Z,99873.45
2023-06-29T15:28:09.367Z,99868.64
2023-06-29T15:33:11.504Z,99871.83
2023-06-29T15:38:14.246Z,99873.52
2023-06-29T15:43:18.709Z,99869.72
2023-06-29T15:48:21.850Z,99869.77
2023-06-29T15:53:24.395Z,99873.46
2023-06-29T15:58:27.850Z,99875.14
2023-06-29T16:03:29.994Z,99874.78
2023-06-29T16:08:32.092Z,99872.20
2023-06-29T16:13:34.079Z,99875.36
2023-06-29T16:18:35.917Z,99876.98
2023-06-29T16:23:38.621Z,99874.71
2023-06-29T16:28:40.712Z,99878.80
2023-06-29T16:33:43.605Z,99884.56
2023-06-29T16:38:46.101Z,99883.34
2023-06-29T16:43:53.127Z,99885.11
2023-06-29T16:48:57.841Z,99886.59
2023-06-29T16:53:59.817Z,99885.59
2023-06-29T16:59:02.003Z,99892.32
2023-06-29T17:04:04.285Z,99891.75
2023-06-29T17:09:06.273Z,99892.01
2023-06-29T17:14:08.253Z,99891.59
2023-06-29T17:19:11.294Z,99890.46
2023-06-29T17:24:13.332Z,99892.73
2023-06-29T17:29:15.821Z,99894.39
2023-06-29T17:34:18.410Z,99892.77
2023-06-29T17:39:22.335Z,99896.99
2023-06-29T17:44:24.484Z,99898.23
2023-06-29T17:49:27.318Z,99892.86
2023-06-29T17:54:29.617Z,99889.59
2023-06-29T17:59:31.997Z,99886.03
2023-06-29T18:04:34.139Z,99889.81
2023-06-29T18:09:36.569Z,99897.00
2023-06-29T18:14:38.857Z,99895.35
2023-06-29T18:19:40.732Z,99891.88
2023-06-29T18:24:42.718Z,99904.80
2023-06-29T18:29:45.221Z,99903.05
2023-06-29T18:34:48.107Z,99905.23
2023-06-29T18:39:49.880Z,99912.79
2023-06-29T18:44:53.086Z,99920.67
2023-06-29T18:49:56.399Z,99923.98
2023-06-29T18:55:01.673Z,99924.54
2023-06-29T19:00:04.396Z,99928.00
2023-06-29T19:05:08.432Z,99931.31
2023-06-29T19:10:12.004Z,99933.48
2023-06-29T19:15:14.912Z,99939.11
2023-06-29T19:20:18.212Z,99939.52
2023-06-29T19:25:20.193Z,99943.08
2023-06-29T19:30:22.182Z,99947.24
2023-06-29T19:35:24.979Z,99943.70
2023-06-29T19:40:28.411Z,99945.16
2023-06-29T19:45:31.354Z,99945.44
2023-06-29T19:50:33.889Z,99942.28
2023-06-29T19:55:36.275Z,99944.69
2023-06-29T20:00:38.139Z,99949.58
2023-06-29T20:05:41.435Z,99950.45
2023-06-29T20:10:43.546Z,99948.35
2023-06-29T20:15:46.554Z,99947.72
2023-06-29T20:20:48.628Z,99946.93
2023-06-29T20:25:51.940Z,99954.24
2023-06-29T20:30:55.153Z,99959.38
2023-06-29T20:35:58.058Z,99954.39
2023-06-29T20:41:00.737Z,99947.82
2023-06-29T20:46:03.197Z,99947.91
2023-06-29T20:51:16.881Z,99950.01
2023-06-29T20:56:21.117Z,99946.63
2023-06-29T21:01:24.418Z,99940.70
2023-06-29T21:06:26.920Z,99942.84
2023-06-29T21:11:31.338Z,99944.47
2023-06-29T21:16:34.886Z,99947.09
2023-06-29T21:21:37.359Z,99938.14
2023-06-29T21:26:39.359Z,99934.12
2023-06-29T21:31:42.656Z,99928.21
2023-06-29T21:36:45.042Z,99926.10
2023-06-29T21:41:47.324Z,99925.91
2023-06-29T21:46:49.618Z,99922.75
2023-06-29T21:51:51.846Z,99922.35
2023-06-29T21:56:54.552Z,99928.57
2023-06-29T22:01:57.316Z,99923.98
2023-06-29T22:07:11.676Z,99921.85
2023-06-29T22:12:17.738Z,99920.94
2023-06-29T22:17:20.438Z,99916.89
2023-06-29T22:22:22.208Z,99919.50
2023-06-29T22:27:23.882Z,99921.06
2023-06-29T22:32:25.984Z,99918.52
2023-06-29T22:37:28.148Z,99921.14
2023-06-29T22:42:30.332Z,99919.78
2023-06-29T22:47:32.461Z,99924.17
2023-06-29T22:52:34.499Z,99932.22
2023-06-29T22:57:36.479Z,99932.54
2023-06-29T23:02:38.818Z,99929.79
2023-06-29T23:07:44.119Z,99927.30
2023-06-29T23:12:48.562Z,99923.33
2023-06-29T23:17:50.376Z,99926.83
2023-06-29T23:22:52.895Z,99924.04
2023-06-29T23:27:54.901Z,99917.48
2023-06-29T23:32:56.683Z,99919.37
2023-06-29T23:37:58.863Z,99917.98
2023-06-29T23:43:05.705Z,99919.95
2023-06-29T23:48:07.794Z,99917.91
2023-06-29T23:53:09.616Z,99918.87
2023-06-29T23:58:11.394Z,99914.76
